sensor_id;sensor_type;location;lat;lon;timestamp;P1;durP1;ratioP1;P2;durP2;ratioP2
71600;SDS011;59446;52.192;4.628;2022-07-04T00:01:42;3.07;;;0.77;;
71600;SDS011;59446;52.192;4.628;2022-07-04T00:04:08;2.92;;;0.98;;
71600;SDS011;59446;52.192;4.628;2022-07-04T00:06:33;4.00;;;1.00;;
71600;SDS011;59446;52.192;4.628;2022-07-04T00:08:58;1.93;;;0.97;;
71600;SDS011;59446;52.192;4.628;2022-07-04T00:11:24;3.90;;;0.93;;
71600;SDS011;59446;52.192;4.628;2022-07-04T00:13:53;2.05;;;0.80;;
71600;SDS011;59446;52.192;4.628;2022-07-04T00:16:21;2.30;;;0.90;;
71600;SDS011;59446;52.192;4.628;2022-07-04T00:18:47;2.05;;;1.00;;
71600;SDS011;59446;52.192;4.628;2022-07-04T00:21:15;2.95;;;0.82;;
71600;SDS011;59446;52.192;4.628;2022-07-04T00:23:40;2.80;;;1.03;;
71600;SDS011;59446;52.192;4.628;2022-07-04T00:26:05;2.20;;;1.27;;
71600;SDS011;59446;52.192;4.628;2022-07-04T00:28:31;2.73;;;0.93;;
71600;SDS011;59446;52.192;4.628;2022-07-04T00:30:56;2.07;;;1.00;;
71600;SDS011;59446;52.192;4.628;2022-07-04T00:33:21;2.17;;;0.90;;
71600;SDS011;59446;52.192;4.628;2022-07-04T00:35:48;2.83;;;1.00;;
71600;SDS011;59446;52.192;4.628;2022-07-04T00:38:20;3.03;;;0.80;;
71600;SDS011;59446;52.192;4.628;2022-07-04T00:40:45;2.37;;;0.90;;
71600;SDS011;59446;52.192;4.628;2022-07-04T00:43:10;1.50;;;0.90;;
71600;SDS011;59446;52.192;4.628;2022-07-04T00:45:47;1.27;;;0.73;;
71600;SDS011;59446;52.192;4.628;2022-07-04T00:48:15;2.67;;;1.10;;
71600;SDS011;59446;52.192;4.628;2022-07-04T00:50:42;2.10;;;1.08;;
71600;SDS011;59446;52.192;4.628;2022-07-04T00:53:09;2.00;;;0.82;;
71600;SDS011;59446;52.192;4.628;2022-07-04T00:55:37;5.03;;;1.00;;
71600;SDS011;59446;52.192;4.628;2022-07-04T00:58:07;2.67;;;0.95;;
71600;SDS011;59446;52.192;4.628;2022-07-04T01:00:33;3.33;;;0.93;;
71600;SDS011;59446;52.192;4.628;2022-07-04T01:02:59;2.03;;;0.93;;
71600;SDS011;59446;52.192;4.628;2022-07-04T01:05:24;2.92;;;0.90;;
71600;SDS011;59446;52.192;4.628;2022-07-04T01:07:50;1.17;;;0.80;;
71600;SDS011;59446;52.192;4.628;2022-07-04T01:10:16;1.48;;;0.80;;
71600;SDS011;59446;52.192;4.628;2022-07-04T01:12:42;2.83;;;1.00;;
71600;SDS011;59446;52.192;4.628;2022-07-04T01:15:07;2.80;;;0.90;;
71600;SDS011;59446;52.192;4.628;2022-07-04T01:17:34;2.10;;;0.90;;
71600;SDS011;59446;52.192;4.628;2022-07-04T01:20:00;2.95;;;1.00;;
71600;SDS011;59446;52.192;4.628;2022-07-04T01:22:26;1.38;;;0.80;;
71600;SDS011;59446;52.192;4.628;2022-07-04T01:24:54;2.40;;;0.98;;
71600;SDS011;59446;52.192;4.628;2022-07-04T01:27:19;2.13;;;1.07;;
71600;SDS011;59446;52.192;4.628;2022-07-04T01:29:45;1.10;;;0.70;;
71600;SDS011;59446;52.192;4.628;2022-07-04T01:32:14;2.15;;;0.90;;
71600;SDS011;59446;52.192;4.628;2022-07-04T01:34:39;2.10;;;0.90;;
71600;SDS011;59446;52.192;4.628;2022-07-04T01:37:05;2.80;;;1.02;;
71600;SDS011;59446;52.192;4.628;2022-07-04T01:39:31;3.05;;;0.90;;
71600;SDS011;59446;52.192;4.628;2022-07-04T01:41:59;2.07;;;0.90;;
71600;SDS011;59446;52.192;4.628;2022-07-04T01:44:28;3.08;;;1.05;;
71600;SDS011;59446;52.192;4.628;2022-07-04T01:46:54;3.37;;;1.13;;
71600;SDS011;59446;52.192;4.628;2022-07-04T01:49:19;3.47;;;1.00;;
71600;SDS011;59446;52.192;4.628;2022-07-04T01:51:51;2.50;;;0.93;;
71600;SDS011;59446;52.192;4.628;2022-07-04T01:54:17;2.55;;;0.90;;
71600;SDS011;59446;52.192;4.628;2022-07-04T01:56:43;1.30;;;0.80;;
71600;SDS011;59446;52.192;4.628;2022-07-04T01:59:09;3.88;;;0.95;;
71600;SDS011;59446;52.192;4.628;2022-07-04T02:01:34;2.72;;;0.98;;
71600;SDS011;59446;52.192;4.628;2022-07-04T02:04:01;3.90;;;1.10;;
71600;SDS011;59446;52.192;4.628;2022-07-04T02:06:29;2.30;;;1.00;;
71600;SDS011;59446;52.192;4.628;2022-07-04T02:08:57;1.88;;;0.90;;
71600;SDS011;59446;52.192;4.628;2022-07-04T02:11:42;4.30;;;1.10;;
71600;SDS011;59446;52.192;4.628;2022-07-04T02:14:28;2.97;;;1.05;;
71600;SDS011;59446;52.192;4.628;2022-07-04T02:16:55;2.65;;;0.93;;
71600;SDS011;59446;52.192;4.628;2022-07-04T02:19:20;3.87;;;0.90;;
71600;SDS011;59446;52.192;4.628;2022-07-04T02:21:46;1.67;;;0.93;;
71600;SDS011;59446;52.192;4.628;2022-07-04T02:24:15;1.98;;;0.80;;
71600;SDS011;59446;52.192;4.628;2022-07-04T02:26:49;2.45;;;0.80;;
71600;SDS011;59446;52.192;4.628;2022-07-04T02:29:15;1.97;;;0.90;;
71600;SDS011;59446;52.192;4.628;2022-07-04T02:31:40;2.65;;;1.02;;
71600;SDS011;59446;52.192;4.628;2022-07-04T02:34:07;1.60;;;0.80;;
71600;SDS011;59446;52.192;4.628;2022-07-04T02:36:32;2.33;;;0.95;;
71600;SDS011;59446;52.192;4.628;2022-07-04T02:38:58;2.00;;;1.07;;
71600;SDS011;59446;52.192;4.628;2022-07-04T02:41:23;4.20;;;1.00;;
71600;SDS011;59446;52.192;4.628;2022-07-04T02:43:49;6.43;;;1.27;;
71600;SDS011;59446;52.192;4.628;2022-07-04T02:46:14;2.43;;;1.20;;
71600;SDS011;59446;52.192;4.628;2022-07-04T02:48:40;3.13;;;1.10;;
71600;SDS011;59446;52.192;4.628;2022-07-04T02:51:06;3.73;;;1.00;;
71600;SDS011;59446;52.192;4.628;2022-07-04T02:53:31;2.33;;;0.90;;
71600;SDS011;59446;52.192;4.628;2022-07-04T02:55:56;4.27;;;1.10;;
71600;SDS011;59446;52.192;4.628;2022-07-04T02:58:22;3.47;;;1.07;;
71600;SDS011;59446;52.192;4.628;2022-07-04T03:00:47;1.50;;;0.90;;
71600;SDS011;59446;52.192;4.628;2022-07-04T03:03:14;1.38;;;0.75;;
71600;SDS011;59446;52.192;4.628;2022-07-04T03:05:40;2.90;;;0.77;;
71600;SDS011;59446;52.192;4.628;2022-07-04T03:08:05;1.77;;;0.70;;
71600;SDS011;59446;52.192;4.628;2022-07-04T03:10:30;3.13;;;0.80;;
71600;SDS011;59446;52.192;4.628;2022-07-04T03:12:58;1.60;;;0.70;;
71600;SDS011;59446;52.192;4.628;2022-07-04T03:15:24;1.60;;;0.90;;
71600;SDS011;59446;52.192;4.628;2022-07-04T03:17:49;2.07;;;0.90;;
71600;SDS011;59446;52.192;4.628;2022-07-04T03:20:19;1.97;;;0.90;;
71600;SDS011;59446;52.192;4.628;2022-07-04T03:22:44;4.00;;;1.00;;
71600;SDS011;59446;52.192;4.628;2022-07-04T03:25:10;1.83;;;0.77;;
71600;SDS011;59446;52.192;4.628;2022-07-04T03:27:35;2.97;;;1.08;;
71600;SDS011;59446;52.192;4.628;2022-07-04T03:30:04;2.93;;;1.37;;
71600;SDS011;59446;52.192;4.628;2022-07-04T03:32:29;2.30;;;0.93;;
71600;SDS011;59446;52.192;4.628;2022-07-04T03:34:55;3.07;;;0.77;;
71600;SDS011;59446;52.192;4.628;2022-07-04T03:37:20;4.93;;;0.90;;
71600;SDS011;59446;52.192;4.628;2022-07-04T03:39:46;2.63;;;0.82;;
71600;SDS011;59446;52.192;4.628;2022-07-04T03:42:12;1.67;;;0.87;;
71600;SDS011;59446;52.192;4.628;2022-07-04T03:44:37;4.23;;;1.07;;
71600;SDS011;59446;52.192;4.628;2022-07-04T03:47:03;1.83;;;0.77;;
71600;SDS011;59446;52.192;4.628;2022-07-04T03:49:28;2.50;;;0.90;;
71600;SDS011;59446;52.192;4.628;2022-07-04T03:51:54;2.10;;;0.80;;
71600;SDS011;59446;52.192;4.628;2022-07-04T03:54:22;3.33;;;1.00;;
71600;SDS011;59446;52.192;4.628;2022-07-04T03:56:48;2.90;;;0.73;;
71600;SDS011;59446;52.192;4.628;2022-07-04T03:59:13;1.88;;;0.77;;
71600;SDS011;59446;52.192;4.628;2022-07-04T04:01:42;2.80;;;1.00;;
71600;SDS011;59446;52.192;4.628;2022-07-04T04:04:07;2.50;;;0.80;;
71600;SDS011;59446;52.192;4.628;2022-07-04T04:06:51;1.90;;;0.85;;
71600;SDS011;59446;52.192;4.628;2022-07-04T04:09:19;2.25;;;0.80;;
71600;SDS011;59446;52.192;4.628;2022-07-04T04:11:46;3.90;;;0.87;;
71600;SDS011;59446;52.192;4.628;2022-07-04T04:14:11;2.58;;;0.80;;
71600;SDS011;59446;52.192;4.628;2022-07-04T04:16:37;1.30;;;0.80;;
71600;SDS011;59446;52.192;4.628;2022-07-04T04:19:03;4.68;;;1.15;;
71600;SDS011;59446;52.192;4.628;2022-07-04T04:21:29;2.67;;;0.80;;
71600;SDS011;59446;52.192;4.628;2022-07-04T04:23:54;1.90;;;0.80;;
71600;SDS011;59446;52.192;4.628;2022-07-04T04:26:23;3.30;;;1.00;;
71600;SDS011;59446;52.192;4.628;2022-07-04T04:28:48;1.40;;;0.82;;
71600;SDS011;59446;52.192;4.628;2022-07-04T04:31:14;2.23;;;0.90;;
71600;SDS011;59446;52.192;4.628;2022-07-04T04:33:39;2.37;;;0.80;;
71600;SDS011;59446;52.192;4.628;2022-07-04T04:36:05;1.92;;;0.73;;
71600;SDS011;59446;52.192;4.628;2022-07-04T04:38:34;2.97;;;1.10;;
71600;SDS011;59446;52.192;4.628;2022-07-04T04:40:59;1.57;;;0.80;;
71600;SDS011;59446;52.192;4.628;2022-07-04T04:43:25;1.17;;;0.80;;
71600;SDS011;59446;52.192;4.628;2022-07-04T04:45:50;1.80;;;0.80;;
71600;SDS011;59446;52.192;4.628;2022-07-04T04:48:17;2.07;;;1.00;;
71600;SDS011;59446;52.192;4.628;2022-07-04T04:50:42;3.13;;;0.88;;
71600;SDS011;59446;52.192;4.628;2022-07-04T04:53:08;2.50;;;1.00;;
71600;SDS011;59446;52.192;4.628;2022-07-04T04:55:34;2.33;;;1.20;;
71600;SDS011;59446;52.192;4.628;2022-07-04T04:58:00;0.80;;;0.70;;
71600;SDS011;59446;52.192;4.628;2022-07-04T05:00:25;1.97;;;0.80;;
71600;SDS011;59446;52.192;4.628;2022-07-04T05:02:51;1.33;;;0.70;;
71600;SDS011;59446;52.192;4.628;2022-07-04T05:05:17;2.73;;;0.97;;
71600;SDS011;59446;52.192;4.628;2022-07-04T05:07:42;1.73;;;0.90;;
71600;SDS011;59446;52.192;4.628;2022-07-04T05:10:08;3.63;;;0.95;;
71600;SDS011;59446;52.192;4.628;2022-07-04T05:12:37;1.07;;;0.77;;
71600;SDS011;59446;52.192;4.628;2022-07-04T05:15:02;1.10;;;0.70;;
71600;SDS011;59446;52.192;4.628;2022-07-04T05:17:28;1.73;;;1.02;;
71600;SDS011;59446;52.192;4.628;2022-07-04T05:19:53;1.60;;;0.93;;
71600;SDS011;59446;52.192;4.628;2022-07-04T05:22:22;3.58;;;1.23;;
71600;SDS011;59446;52.192;4.628;2022-07-04T05:24:48;1.67;;;1.03;;
71600;SDS011;59446;52.192;4.628;2022-07-04T05:27:13;1.92;;;0.70;;
71600;SDS011;59446;52.192;4.628;2022-07-04T05:29:39;3.23;;;0.80;;
71600;SDS011;59446;52.192;4.628;2022-07-04T05:32:04;3.40;;;0.70;;
71600;SDS011;59446;52.192;4.628;2022-07-04T05:34:31;5.43;;;1.30;;
71600;SDS011;59446;52.192;4.628;2022-07-04T05:36:56;1.67;;;0.70;;
71600;SDS011;59446;52.192;4.628;2022-07-04T05:39:22;1.40;;;0.83;;
71600;SDS011;59446;52.192;4.628;2022-07-04T05:41:47;2.43;;;0.80;;
71600;SDS011;59446;52.192;4.628;2022-07-04T05:44:12;2.53;;;1.00;;
71600;SDS011;59446;52.192;4.628;2022-07-04T05:46:38;1.73;;;0.75;;
71600;SDS011;59446;52.192;4.628;2022-07-04T05:49:03;3.47;;;0.90;;
71600;SDS011;59446;52.192;4.628;2022-07-04T05:51:29;1.50;;;0.70;;
71600;SDS011;59446;52.192;4.628;2022-07-04T05:53:54;3.17;;;0.90;;
71600;SDS011;59446;52.192;4.628;2022-07-04T05:56:19;3.23;;;1.00;;
71600;SDS011;59446;52.192;4.628;2022-07-04T05:58:45;3.78;;;0.93;;
71600;SDS011;59446;52.192;4.628;2022-07-04T06:01:10;2.57;;;0.77;;
71600;SDS011;59446;52.192;4.628;2022-07-04T06:03:36;1.20;;;0.63;;
71600;SDS011;59446;52.192;4.628;2022-07-04T06:06:02;1.20;;;0.77;;
71600;SDS011;59446;52.192;4.628;2022-07-04T06:08:28;1.83;;;0.93;;
71600;SDS011;59446;52.192;4.628;2022-07-04T06:10:53;3.13;;;0.90;;
71600;SDS011;59446;52.192;4.628;2022-07-04T06:13:19;1.30;;;0.70;;
71600;SDS011;59446;52.192;4.628;2022-07-04T06:15:44;1.73;;;0.77;;
71600;SDS011;59446;52.192;4.628;2022-07-04T06:18:10;1.00;;;0.70;;
71600;SDS011;59446;52.192;4.628;2022-07-04T06:20:35;1.80;;;0.90;;
71600;SDS011;59446;52.192;4.628;2022-07-04T06:23:00;1.88;;;0.80;;
71600;SDS011;59446;52.192;4.628;2022-07-04T06:25:26;1.50;;;0.70;;
71600;SDS011;59446;52.192;4.628;2022-07-04T06:27:51;1.67;;;0.70;;
71600;SDS011;59446;52.192;4.628;2022-07-04T06:30:17;3.45;;;0.98;;
71600;SDS011;59446;52.192;4.628;2022-07-04T06:35:13;2.28;;;1.00;;
71600;SDS011;59446;52.192;4.628;2022-07-04T06:38:01;2.27;;;0.90;;
71600;SDS011;59446;52.192;4.628;2022-07-04T06:40:26;2.10;;;0.85;;
71600;SDS011;59446;52.192;4.628;2022-07-04T06:42:52;1.10;;;0.80;;
71600;SDS011;59446;52.192;4.628;2022-07-04T06:45:17;1.63;;;0.93;;
71600;SDS011;59446;52.192;4.628;2022-07-04T06:47:43;1.77;;;0.98;;
71600;SDS011;59446;52.192;4.628;2022-07-04T06:50:09;1.00;;;0.70;;
71600;SDS011;59446;52.192;4.628;2022-07-04T06:52:37;1.60;;;0.80;;
71600;SDS011;59446;52.192;4.628;2022-07-04T06:55:03;1.52;;;0.93;;
71600;SDS011;59446;52.192;4.628;2022-07-04T06:57:29;2.73;;;0.90;;
71600;SDS011;59446;52.192;4.628;2022-07-04T06:59:55;1.02;;;0.73;;
71600;SDS011;59446;52.192;4.628;2022-07-04T07:02:20;3.07;;;0.80;;
71600;SDS011;59446;52.192;4.628;2022-07-04T07:04:45;2.07;;;0.70;;
71600;SDS011;59446;52.192;4.628;2022-07-04T07:07:11;1.70;;;0.80;;
71600;SDS011;59446;52.192;4.628;2022-07-04T07:09:36;2.53;;;1.07;;
71600;SDS011;59446;52.192;4.628;2022-07-04T07:12:02;2.33;;;0.70;;
71600;SDS011;59446;52.192;4.628;2022-07-04T07:14:28;2.03;;;0.80;;
71600;SDS011;59446;52.192;4.628;2022-07-04T07:16:53;2.40;;;0.90;;
71600;SDS011;59446;52.192;4.628;2022-07-04T07:19:19;1.40;;;0.83;;
71600;SDS011;59446;52.192;4.628;2022-07-04T07:21:44;2.17;;;0.90;;
71600;SDS011;59446;52.192;4.628;2022-07-04T07:24:10;3.43;;;1.20;;
71600;SDS011;59446;52.192;4.628;2022-07-04T07:26:35;3.00;;;1.10;;
71600;SDS011;59446;52.192;4.628;2022-07-04T07:29:00;1.00;;;0.77;;
71600;SDS011;59446;52.192;4.628;2022-07-04T07:31:26;1.97;;;1.07;;
71600;SDS011;59446;52.192;4.628;2022-07-04T07:33:51;2.30;;;1.20;;
71600;SDS011;59446;52.192;4.628;2022-07-04T07:36:17;1.65;;;0.95;;
71600;SDS011;59446;52.192;4.628;2022-07-04T07:38:42;2.60;;;1.10;;
71600;SDS011;59446;52.192;4.628;2022-07-04T07:41:10;3.17;;;1.10;;
71600;SDS011;59446;52.192;4.628;2022-07-04T07:43:36;2.22;;;1.00;;
71600;SDS011;59446;52.192;4.628;2022-07-04T07:46:04;3.00;;;1.00;;
71600;SDS011;59446;52.192;4.628;2022-07-04T07:48:30;1.90;;;0.88;;
71600;SDS011;59446;52.192;4.628;2022-07-04T07:50:56;3.37;;;1.10;;
71600;SDS011;59446;52.192;4.628;2022-07-04T07:53:23;3.40;;;1.13;;
71600;SDS011;59446;52.192;4.628;2022-07-04T07:55:49;2.27;;;1.10;;
71600;SDS011;59446;52.192;4.628;2022-07-04T07:58:14;2.00;;;1.23;;
71600;SDS011;59446;52.192;4.628;2022-07-04T08:00:43;2.37;;;0.90;;
71600;SDS011;59446;52.192;4.628;2022-07-04T08:03:08;2.30;;;1.10;;
71600;SDS011;59446;52.192;4.628;2022-07-04T08:05:52;2.70;;;1.10;;
71600;SDS011;59446;52.192;4.628;2022-07-04T08:08:18;3.92;;;1.55;;
71600;SDS011;59446;52.192;4.628;2022-07-04T08:10:43;6.93;;;2.10;;
71600;SDS011;59446;52.192;4.628;2022-07-04T08:13:11;6.13;;;2.08;;
71600;SDS011;59446;52.192;4.628;2022-07-04T08:15:37;9.10;;;2.77;;
71600;SDS011;59446;52.192;4.628;2022-07-04T08:18:02;4.03;;;1.70;;
71600;SDS011;59446;52.192;4.628;2022-07-04T08:20:30;3.55;;;1.70;;
71600;SDS011;59446;52.192;4.628;2022-07-04T08:22:56;5.67;;;1.77;;
71600;SDS011;59446;52.192;4.628;2022-07-04T08:25:22;4.22;;;1.50;;
71600;SDS011;59446;52.192;4.628;2022-07-04T08:27:47;3.67;;;1.30;;
71600;SDS011;59446;52.192;4.628;2022-07-04T08:30:12;2.77;;;1.27;;
71600;SDS011;59446;52.192;4.628;2022-07-04T08:32:38;5.33;;;1.40;;
71600;SDS011;59446;52.192;4.628;2022-07-04T08:35:04;2.70;;;1.30;;
71600;SDS011;59446;52.192;4.628;2022-07-04T08:37:30;1.60;;;1.00;;
71600;SDS011;59446;52.192;4.628;2022-07-04T08:39:55;2.93;;;1.23;;
71600;SDS011;59446;52.192;4.628;2022-07-04T08:42:21;4.27;;;1.50;;
71600;SDS011;59446;52.192;4.628;2022-07-04T08:44:47;4.10;;;1.40;;
71600;SDS011;59446;52.192;4.628;2022-07-04T08:47:21;4.43;;;1.67;;
71600;SDS011;59446;52.192;4.628;2022-07-04T08:53:03;3.25;;;1.50;;
71600;SDS011;59446;52.192;4.628;2022-07-04T08:55:33;2.23;;;1.33;;
71600;SDS011;59446;52.192;4.628;2022-07-04T08:58:18;3.85;;;1.40;;
71600;SDS011;59446;52.192;4.628;2022-07-04T09:01:00;8.07;;;1.80;;
71600;SDS011;59446;52.192;4.628;2022-07-04T09:03:28;3.53;;;1.50;;
71600;SDS011;59446;52.192;4.628;2022-07-04T09:05:55;2.30;;;1.17;;
71600;SDS011;59446;52.192;4.628;2022-07-04T09:08:21;2.33;;;1.10;;
71600;SDS011;59446;52.192;4.628;2022-07-04T09:10:48;2.40;;;1.03;;
71600;SDS011;59446;52.192;4.628;2022-07-04T09:13:14;2.45;;;1.00;;
71600;SDS011;59446;52.192;4.628;2022-07-04T09:15:40;2.67;;;1.00;;
71600;SDS011;59446;52.192;4.628;2022-07-04T09:18:18;2.75;;;1.30;;
71600;SDS011;59446;52.192;4.628;2022-07-04T09:20:55;3.17;;;1.20;;
71600;SDS011;59446;52.192;4.628;2022-07-04T09:23:24;8.48;;;1.90;;
71600;SDS011;59446;52.192;4.628;2022-07-04T09:28:56;3.67;;;1.47;;
71600;SDS011;59446;52.192;4.628;2022-07-04T09:33:59;4.50;;;1.02;;
71600;SDS011;59446;52.192;4.628;2022-07-04T09:36:30;2.20;;;1.00;;
71600;SDS011;59446;52.192;4.628;2022-07-04T09:44:22;2.10;;;1.02;;
71600;SDS011;59446;52.192;4.628;2022-07-04T09:47:29;3.33;;;1.43;;
71600;SDS011;59446;52.192;4.628;2022-07-04T09:50:06;2.50;;;1.10;;
71600;SDS011;59446;52.192;4.628;2022-07-04T09:52:56;2.72;;;0.90;;
71600;SDS011;59446;52.192;4.628;2022-07-04T09:55:27;2.37;;;1.10;;
71600;SDS011;59446;52.192;4.628;2022-07-04T09:57:53;1.58;;;0.90;;
71600;SDS011;59446;52.192;4.628;2022-07-04T10:00:21;1.92;;;0.90;;
71600;SDS011;59446;52.192;4.628;2022-07-04T10:02:49;1.67;;;1.00;;
71600;SDS011;59446;52.192;4.628;2022-07-04T10:05:19;1.52;;;0.80;;
71600;SDS011;59446;52.192;4.628;2022-07-04T10:07:49;1.63;;;1.05;;
71600;SDS011;59446;52.192;4.628;2022-07-04T10:13:11;6.53;;;1.20;;
71600;SDS011;59446;52.192;4.628;2022-07-04T10:15:38;1.85;;;0.95;;
71600;SDS011;59446;52.192;4.628;2022-07-04T10:18:08;2.20;;;1.00;;
71600;SDS011;59446;52.192;4.628;2022-07-04T10:20:37;2.13;;;1.10;;
71600;SDS011;59446;52.192;4.628;2022-07-04T10:23:03;7.40;;;1.40;;
71600;SDS011;59446;52.192;4.628;2022-07-04T10:25:30;6.53;;;1.67;;
71600;SDS011;59446;52.192;4.628;2022-07-04T10:28:08;4.83;;;1.10;;
71600;SDS011;59446;52.192;4.628;2022-07-04T10:30:57;2.97;;;1.10;;
71600;SDS011;59446;52.192;4.628;2022-07-04T10:33:25;1.75;;;0.80;;
71600;SDS011;59446;52.192;4.628;2022-07-04T10:35:59;2.00;;;1.05;;
71600;SDS011;59446;52.192;4.628;2022-07-04T10:38:33;2.33;;;1.10;;
71600;SDS011;59446;52.192;4.628;2022-07-04T10:41:11;1.35;;;0.90;;
71600;SDS011;59446;52.192;4.628;2022-07-04T10:43:37;1.57;;;1.00;;
71600;SDS011;59446;52.192;4.628;2022-07-04T10:46:28;1.85;;;0.90;;
71600;SDS011;59446;52.192;4.628;2022-07-04T10:54:48;2.08;;;1.10;;
71600;SDS011;59446;52.192;4.628;2022-07-04T10:59:39;3.58;;;1.05;;
71600;SDS011;59446;52.192;4.628;2022-07-04T11:04:47;1.70;;;1.00;;
71600;SDS011;59446;52.192;4.628;2022-07-04T11:15:55;1.63;;;0.90;;
71600;SDS011;59446;52.192;4.628;2022-07-04T11:18:09;1.85;;;0.90;;
71600;SDS011;59446;52.192;4.628;2022-07-04T11:20:42;2.25;;;0.90;;
71600;SDS011;59446;52.192;4.628;2022-07-04T11:23:13;1.60;;;0.70;;
71600;SDS011;59446;52.192;4.628;2022-07-04T11:25:41;2.58;;;1.02;;
71600;SDS011;59446;52.192;4.628;2022-07-04T11:28:18;1.40;;;0.90;;
71600;SDS011;59446;52.192;4.628;2022-07-04T11:30:50;1.30;;;0.90;;
71600;SDS011;59446;52.192;4.628;2022-07-04T11:33:21;1.15;;;0.90;;
71600;SDS011;59446;52.192;4.628;2022-07-04T11:38:53;2.13;;;1.00;;
71600;SDS011;59446;52.192;4.628;2022-07-04T11:44:35;2.70;;;1.10;;
71600;SDS011;59446;52.192;4.628;2022-07-04T11:49:50;1.50;;;0.87;;
71600;SDS011;59446;52.192;4.628;2022-07-04T11:52:23;4.00;;;1.10;;
71600;SDS011;59446;52.192;4.628;2022-07-04T11:54:50;2.78;;;1.15;;
71600;SDS011;59446;52.192;4.628;2022-07-04T11:57:18;13.80;;;1.20;;
71600;SDS011;59446;52.192;4.628;2022-07-04T12:02:41;4.13;;;1.07;;
71600;SDS011;59446;52.192;4.628;2022-07-04T12:07:56;1.67;;;0.90;;
71600;SDS011;59446;52.192;4.628;2022-07-04T12:10:23;2.30;;;0.80;;
71600;SDS011;59446;52.192;4.628;2022-07-04T12:12:50;2.95;;;1.08;;
71600;SDS011;59446;52.192;4.628;2022-07-04T12:15:23;8.88;;;1.63;;
71600;SDS011;59446;52.192;4.628;2022-07-04T12:18:21;3.30;;;0.90;;
71600;SDS011;59446;52.192;4.628;2022-07-04T12:20:52;1.83;;;1.00;;
71600;SDS011;59446;52.192;4.628;2022-07-04T12:23:27;1.85;;;0.93;;
71600;SDS011;59446;52.192;4.628;2022-07-04T12:26:04;2.93;;;0.90;;
71600;SDS011;59446;52.192;4.628;2022-07-04T12:28:40;1.35;;;0.77;;
71600;SDS011;59446;52.192;4.628;2022-07-04T12:31:06;1.88;;;0.70;;
71600;SDS011;59446;52.192;4.628;2022-07-04T12:33:39;2.43;;;0.80;;
71600;SDS011;59446;52.192;4.628;2022-07-04T12:36:07;1.13;;;0.73;;
71600;SDS011;59446;52.192;4.628;2022-07-04T12:38:36;2.33;;;1.30;;
71600;SDS011;59446;52.192;4.628;2022-07-04T12:43:57;4.60;;;1.00;;
71600;SDS011;59446;52.192;4.628;2022-07-04T12:46:31;1.90;;;0.80;;
71600;SDS011;59446;52.192;4.628;2022-07-04T12:49:08;1.83;;;1.00;;
71600;SDS011;59446;52.192;4.628;2022-07-04T12:51:41;3.20;;;0.95;;
71600;SDS011;59446;52.192;4.628;2022-07-04T12:54:09;2.50;;;1.07;;
71600;SDS011;59446;52.192;4.628;2022-07-04T12:56:37;1.23;;;0.85;;
71600;SDS011;59446;52.192;4.628;2022-07-04T12:59:25;2.45;;;0.88;;
71600;SDS011;59446;52.192;4.628;2022-07-04T13:02:08;1.53;;;0.93;;
71600;SDS011;59446;52.192;4.628;2022-07-04T13:04:50;2.25;;;0.90;;
71600;SDS011;59446;52.192;4.628;2022-07-04T13:07:24;2.50;;;0.85;;
71600;SDS011;59446;52.192;4.628;2022-07-04T13:09:49;1.70;;;0.70;;
71600;SDS011;59446;52.192;4.628;2022-07-04T13:12:14;1.13;;;0.80;;
71600;SDS011;59446;52.192;4.628;2022-07-04T13:14:56;3.33;;;0.83;;
71600;SDS011;59446;52.192;4.628;2022-07-04T13:17:24;1.90;;;0.80;;
71600;SDS011;59446;52.192;4.628;2022-07-04T13:19:51;1.30;;;0.75;;
71600;SDS011;59446;52.192;4.628;2022-07-04T13:22:20;1.90;;;0.87;;
71600;SDS011;59446;52.192;4.628;2022-07-04T13:25:12;2.05;;;0.82;;
71600;SDS011;59446;52.192;4.628;2022-07-04T13:27:37;2.55;;;0.93;;
71600;SDS011;59446;52.192;4.628;2022-07-04T13:33:02;1.67;;;0.80;;
71600;SDS011;59446;52.192;4.628;2022-07-04T13:35:29;3.60;;;1.10;;
71600;SDS011;59446;52.192;4.628;2022-07-04T13:38:00;1.95;;;1.00;;
71600;SDS011;59446;52.192;4.628;2022-07-04T13:40:26;2.10;;;0.90;;
71600;SDS011;59446;52.192;4.628;2022-07-04T13:43:04;1.23;;;0.70;;
71600;SDS011;59446;52.192;4.628;2022-07-04T13:46:00;0.90;;;0.70;;
71600;SDS011;59446;52.192;4.628;2022-07-04T13:48:25;2.65;;;1.00;;
71600;SDS011;59446;52.192;4.628;2022-07-04T13:51:07;3.47;;;1.20;;
71600;SDS011;59446;52.192;4.628;2022-07-04T13:54:08;1.10;;;0.80;;
71600;SDS011;59446;52.192;4.628;2022-07-04T13:56:37;1.90;;;1.02;;
71600;SDS011;59446;52.192;4.628;2022-07-04T13:59:09;1.33;;;0.80;;
71600;SDS011;59446;52.192;4.628;2022-07-04T14:01:44;1.35;;;0.90;;
71600;SDS011;59446;52.192;4.628;2022-07-04T14:04:12;2.35;;;0.98;;
71600;SDS011;59446;52.192;4.628;2022-07-04T14:06:53;1.23;;;0.80;;
71600;SDS011;59446;52.192;4.628;2022-07-04T14:09:18;1.77;;;0.90;;
71600;SDS011;59446;52.192;4.628;2022-07-04T14:11:44;3.63;;;0.80;;
71600;SDS011;59446;52.192;4.628;2022-07-04T14:14:10;1.88;;;0.90;;
71600;SDS011;59446;52.192;4.628;2022-07-04T14:16:39;1.63;;;0.90;;
71600;SDS011;59446;52.192;4.628;2022-07-04T14:19:07;1.70;;;0.73;;
71600;SDS011;59446;52.192;4.628;2022-07-04T15:25:11;2.20;;;1.00;;
71600;SDS011;59446;52.192;4.628;2022-07-04T15:27:37;2.03;;;0.90;;
71600;SDS011;59446;52.192;4.628;2022-07-04T15:30:02;0.97;;;0.70;;
71600;SDS011;59446;52.192;4.628;2022-07-04T15:32:27;2.20;;;0.80;;
71600;SDS011;59446;52.192;4.628;2022-07-04T15:34:53;1.23;;;0.70;;
71600;SDS011;59446;52.192;4.628;2022-07-04T15:37:18;1.83;;;0.90;;
71600;SDS011;59446;52.192;4.628;2022-07-04T15:39:43;2.10;;;1.37;;
71600;SDS011;59446;52.192;4.628;2022-07-04T15:42:09;3.03;;;1.00;;
71600;SDS011;59446;52.192;4.628;2022-07-04T15:44:34;1.47;;;0.80;;
71600;SDS011;59446;52.192;4.628;2022-07-04T15:47:00;2.43;;;0.90;;
71600;SDS011;59446;52.192;4.628;2022-07-04T15:49:34;1.73;;;0.80;;
71600;SDS011;59446;52.192;4.628;2022-07-04T15:52:00;1.37;;;0.70;;
71600;SDS011;59446;52.192;4.628;2022-07-04T15:54:26;1.95;;;1.10;;
71600;SDS011;59446;52.192;4.628;2022-07-04T15:56:52;4.50;;;0.97;;
71600;SDS011;59446;52.192;4.628;2022-07-04T15:59:18;1.83;;;0.80;;
71600;SDS011;59446;52.192;4.628;2022-07-04T16:01:44;1.70;;;0.80;;
71600;SDS011;59446;52.192;4.628;2022-07-04T16:04:09;2.13;;;1.00;;
71600;SDS011;59446;52.192;4.628;2022-07-04T16:06:34;2.17;;;0.93;;
71600;SDS011;59446;52.192;4.628;2022-07-04T16:09:00;1.67;;;0.80;;
71600;SDS011;59446;52.192;4.628;2022-07-04T16:11:25;2.33;;;0.90;;
71600;SDS011;59446;52.192;4.628;2022-07-04T16:13:51;2.87;;;0.90;;
71600;SDS011;59446;52.192;4.628;2022-07-04T16:16:16;2.10;;;0.90;;
71600;SDS011;59446;52.192;4.628;2022-07-04T16:18:42;4.20;;;1.10;;
71600;SDS011;59446;52.192;4.628;2022-07-04T16:21:08;1.10;;;0.90;;
71600;SDS011;59446;52.192;4.628;2022-07-04T16:23:33;1.13;;;0.80;;
71600;SDS011;59446;52.192;4.628;2022-07-04T16:25:59;2.10;;;0.93;;
71600;SDS011;59446;52.192;4.628;2022-07-04T16:28:24;1.07;;;0.70;;
71600;SDS011;59446;52.192;4.628;2022-07-04T16:30:49;2.57;;;1.30;;
71600;SDS011;59446;52.192;4.628;2022-07-04T16:33:15;1.33;;;0.87;;
71600;SDS011;59446;52.192;4.628;2022-07-04T16:35:40;1.83;;;0.87;;
71600;SDS011;59446;52.192;4.628;2022-07-04T16:38:05;1.93;;;0.70;;
71600;SDS011;59446;52.192;4.628;2022-07-04T16:40:31;1.27;;;0.70;;
71600;SDS011;59446;52.192;4.628;2022-07-04T16:42:56;2.33;;;1.00;;
71600;SDS011;59446;52.192;4.628;2022-07-04T16:45:22;2.67;;;0.80;;
71600;SDS011;59446;52.192;4.628;2022-07-04T16:47:47;2.17;;;0.90;;
71600;SDS011;59446;52.192;4.628;2022-07-04T16:50:12;2.40;;;0.83;;
71600;SDS011;59446;52.192;4.628;2022-07-04T16:52:39;1.65;;;0.90;;
71600;SDS011;59446;52.192;4.628;2022-07-04T16:55:05;2.03;;;1.00;;
71600;SDS011;59446;52.192;4.628;2022-07-04T16:57:30;1.87;;;1.10;;